Terminal Aerodrome Forecast
Issued by NWS

Home | Current Version | Previous Version | Text Only | Print | Product List | Glossary On
Versions: 1 2 3 4 5 6 7 8 9 10 11 12 13 14 15 16
000
FTAK31 PANC 032202 AAA
TAFADQ
TAF AMD
PADQ 032202Z 0322/0418 VRB04KT P6SM VCSH SCT025 BKN040
     FM040000 11012KT P6SM -SHRA BKN025 OVC035
     FM040800 10012G20KT 6SM -RA BR SCT007 BKN015 OVC025
     FM041200 VRB06KT P6SM -SHRA FEW015 BKN025 BKN035=

USA.gov is the U.S. government's official web portal to all federal, state and local government web resources and services.